sensor_id;sensor_type;location;lat;lon;timestamp;temperature;humidity
6421;DHT22;3243;50.958;7.012;2022-08-11T00:01:27;19.90;99.90
6421;DHT22;3243;50.958;7.012;2022-08-11T00:04:03;19.90;99.90
6421;DHT22;3243;50.958;7.012;2022-08-11T00:06:36;19.90;99.90
6421;DHT22;3243;50.958;7.012;2022-08-11T00:09:08;20.00;99.90
6421;DHT22;3243;50.958;7.012;2022-08-11T00:14:12;19.80;99.90
6421;DHT22;3243;50.958;7.012;2022-08-11T00:16:40;19.80;99.90
6421;DHT22;3243;50.958;7.012;2022-08-11T00:21:40;19.80;99.90
6421;DHT22;3243;50.958;7.012;2022-08-11T00:29:52;19.60;99.90
6421;DHT22;3243;50.958;7.012;2022-08-11T00:34:47;19.60;99.90
6421;DHT22;3243;50.958;7.012;2022-08-11T00:37:21;19.60;99.90
6421;DHT22;3243;50.958;7.012;2022-08-11T00:48:02;19.50;99.90
6421;DHT22;3243;50.958;7.012;2022-08-11T00:59:01;19.30;99.90
6421;DHT22;3243;50.958;7.012;2022-08-11T01:10:51;19.10;99.90
6421;DHT22;3243;50.958;7.012;2022-08-11T01:15:57;19.10;99.90
6421;DHT22;3243;50.958;7.012;2022-08-11T01:30:04;19.00;99.90
6421;DHT22;3243;50.958;7.012;2022-08-11T01:32:48;18.90;99.90
6421;DHT22;3243;50.958;7.012;2022-08-11T01:35:34;19.00;99.90
6421;DHT22;3243;50.958;7.012;2022-08-11T01:44:12;19.00;99.90
6421;DHT22;3243;50.958;7.012;2022-08-11T01:47:27;18.90;99.90
6421;DHT22;3243;50.958;7.012;2022-08-11T01:53:09;18.90;99.90
6421;DHT22;3243;50.958;7.012;2022-08-11T02:14:36;18.70;99.90
6421;DHT22;3243;50.958;7.012;2022-08-11T02:17:19;18.70;99.90
6421;DHT22;3243;50.958;7.012;2022-08-11T02:22:59;18.60;99.90
6421;DHT22;3243;50.958;7.012;2022-08-11T02:26:10;18.60;99.90
6421;DHT22;3243;50.958;7.012;2022-08-11T02:53:38;18.40;99.90
6421;DHT22;3243;50.958;7.012;2022-08-11T03:18:58;18.20;99.90
6421;DHT22;3243;50.958;7.012;2022-08-11T03:34:47;18.20;99.90
6421;DHT22;3243;50.958;7.012;2022-08-11T03:37:23;18.20;99.90
6421;DHT22;3243;50.958;7.012;2022-08-11T03:56:20;17.70;99.90
6421;DHT22;3243;50.958;7.012;2022-08-11T04:40:53;17.40;99.90
6421;DHT22;3243;50.958;7.012;2022-08-11T05:10:11;17.70;99.90
6421;DHT22;3243;50.958;7.012;2022-08-11T05:21:11;17.90;99.90
6421;DHT22;3243;50.958;7.012;2022-08-11T05:41:19;18.50;99.90
6421;DHT22;3243;50.958;7.012;2022-08-11T05:44:06;18.60;99.90
6421;DHT22;3243;50.958;7.012;2022-08-11T06:06:26;19.80;99.90
6421;DHT22;3243;50.958;7.012;2022-08-11T06:11:24;21.50;99.90
6421;DHT22;3243;50.958;7.012;2022-08-11T06:21:35;26.90;99.90
6421;DHT22;3243;50.958;7.012;2022-08-11T06:24:09;27.70;99.90
6421;DHT22;3243;50.958;7.012;2022-08-11T06:26:46;28.70;99.90
6421;DHT22;3243;50.958;7.012;2022-08-11T06:29:35;29.10;99.90
6421;DHT22;3243;50.958;7.012;2022-08-11T06:32:31;29.30;99.90
6421;DHT22;3243;50.958;7.012;2022-08-11T06:46:42;25.10;99.90
6421;DHT22;3243;50.958;7.012;2022-08-11T06:59:58;23.70;99.90
6421;DHT22;3243;50.958;7.012;2022-08-11T07:03:07;23.80;99.90
6421;DHT22;3243;50.958;7.012;2022-08-11T07:14:06;23.90;99.90
6421;DHT22;3243;50.958;7.012;2022-08-11T07:16:52;24.00;99.90
6421;DHT22;3243;50.958;7.012;2022-08-11T07:22:09;24.20;99.90
6421;DHT22;3243;50.958;7.012;2022-08-11T07:33:02;24.70;99.90
6421;DHT22;3243;50.958;7.012;2022-08-11T07:38:07;24.90;99.90
6421;DHT22;3243;50.958;7.012;2022-08-11T07:43:10;25.10;99.90
6421;DHT22;3243;50.958;7.012;2022-08-11T07:48:28;25.20;99.90
6421;DHT22;3243;50.958;7.012;2022-08-11T07:51:18;25.20;99.90
6421;DHT22;3243;50.958;7.012;2022-08-11T07:54:05;25.40;99.90
6421;DHT22;3243;50.958;7.012;2022-08-11T08:02:28;25.70;99.90
6421;DHT22;3243;50.958;7.012;2022-08-11T08:08:01;26.10;99.90
6421;DHT22;3243;50.958;7.012;2022-08-11T08:10:47;26.10;99.90
6421;DHT22;3243;50.958;7.012;2022-08-11T08:19:05;26.30;99.90
6421;DHT22;3243;50.958;7.012;2022-08-11T08:21:32;26.40;99.90
6421;DHT22;3243;50.958;7.012;2022-08-11T08:26:27;26.60;99.90
6421;DHT22;3243;50.958;7.012;2022-08-11T08:29:19;26.70;99.90
6421;DHT22;3243;50.958;7.012;2022-08-11T08:34:36;26.70;99.90
6421;DHT22;3243;50.958;7.012;2022-08-11T08:37:04;26.80;99.90
6421;DHT22;3243;50.958;7.012;2022-08-11T08:42:28;27.00;99.90
6421;DHT22;3243;50.958;7.012;2022-08-11T08:50:14;27.00;99.90
6421;DHT22;3243;50.958;7.012;2022-08-11T09:10:14;27.60;99.90
6421;DHT22;3243;50.958;7.012;2022-08-11T09:15:12;27.70;99.90
6421;DHT22;3243;50.958;7.012;2022-08-11T09:17:47;27.70;99.90
6421;DHT22;3243;50.958;7.012;2022-08-11T09:20:20;27.70;99.90
6421;DHT22;3243;50.958;7.012;2022-08-11T09:28:46;27.90;99.90
6421;DHT22;3243;50.958;7.012;2022-08-11T09:33:42;27.80;99.90
6421;DHT22;3243;50.958;7.012;2022-08-11T09:36:11;27.90;99.90
6421;DHT22;3243;50.958;7.012;2022-08-11T09:44:30;28.20;99.90
6421;DHT22;3243;50.958;7.012;2022-08-11T09:52:14;28.50;99.90
6421;DHT22;3243;50.958;7.012;2022-08-11T09:54:46;28.40;99.90
6421;DHT22;3243;50.958;7.012;2022-08-11T09:57:17;28.50;99.90
6421;DHT22;3243;50.958;7.012;2022-08-11T10:02:45;28.50;99.90
6421;DHT22;3243;50.958;7.012;2022-08-11T10:08:01;28.50;99.90
6421;DHT22;3243;50.958;7.012;2022-08-11T10:13:02;28.40;99.90
6421;DHT22;3243;50.958;7.012;2022-08-11T10:15:54;28.50;99.90
6421;DHT22;3243;50.958;7.012;2022-08-11T10:18:41;28.70;99.90
6421;DHT22;3243;50.958;7.012;2022-08-11T10:23:51;29.00;99.90
6421;DHT22;3243;50.958;7.012;2022-08-11T10:26:37;28.90;99.90
6421;DHT22;3243;50.958;7.012;2022-08-11T10:29:22;28.80;99.90
6421;DHT22;3243;50.958;7.012;2022-08-11T10:32:28;28.70;99.90
6421;DHT22;3243;50.958;7.012;2022-08-11T10:35:26;28.60;99.90
6421;DHT22;3243;50.958;7.012;2022-08-11T10:37:53;28.60;99.90
6421;DHT22;3243;50.958;7.012;2022-08-11T10:40:37;28.60;99.90
6421;DHT22;3243;50.958;7.012;2022-08-11T10:43:06;28.80;99.90
6421;DHT22;3243;50.958;7.012;2022-08-11T10:45:44;29.00;99.90
6421;DHT22;3243;50.958;7.012;2022-08-11T10:48:35;29.10;99.90
6421;DHT22;3243;50.958;7.012;2022-08-11T10:51:03;29.10;99.90
6421;DHT22;3243;50.958;7.012;2022-08-11T10:53:47;29.10;99.90
6421;DHT22;3243;50.958;7.012;2022-08-11T10:56:39;29.00;99.90
6421;DHT22;3243;50.958;7.012;2022-08-11T10:59:26;28.90;99.90
6421;DHT22;3243;50.958;7.012;2022-08-11T11:01:54;28.90;99.90
6421;DHT22;3243;50.958;7.012;2022-08-11T11:04:29;29.00;99.90
6421;DHT22;3243;50.958;7.012;2022-08-11T11:07:35;29.10;99.90
6421;DHT22;3243;50.958;7.012;2022-08-11T11:10:10;29.20;99.90
6421;DHT22;3243;50.958;7.012;2022-08-11T11:12:43;29.40;99.90
6421;DHT22;3243;50.958;7.012;2022-08-11T11:15:32;29.30;99.90
6421;DHT22;3243;50.958;7.012;2022-08-11T11:18:23;29.20;99.90
6421;DHT22;3243;50.958;7.012;2022-08-11T11:21:02;29.20;99.90
6421;DHT22;3243;50.958;7.012;2022-08-11T11:29:26;29.20;99.90
6421;DHT22;3243;50.958;7.012;2022-08-11T11:37:18;29.30;99.90
6421;DHT22;3243;50.958;7.012;2022-08-11T11:39:46;29.20;99.90
6421;DHT22;3243;50.958;7.012;2022-08-11T11:42:13;29.20;99.90
6421;DHT22;3243;50.958;7.012;2022-08-11T11:44:43;29.40;99.90
6421;DHT22;3243;50.958;7.012;2022-08-11T11:47:11;29.50;99.90
6421;DHT22;3243;50.958;7.012;2022-08-11T11:49:40;29.60;99.90
6421;DHT22;3243;50.958;7.012;2022-08-11T11:52:18;29.70;99.90
6421;DHT22;3243;50.958;7.012;2022-08-11T11:54:46;29.60;99.90
6421;DHT22;3243;50.958;7.012;2022-08-11T11:57:18;29.60;99.90
6421;DHT22;3243;50.958;7.012;2022-08-11T12:00:05;29.60;99.90
6421;DHT22;3243;50.958;7.012;2022-08-11T12:03:02;29.60;99.90
6421;DHT22;3243;50.958;7.012;2022-08-11T12:05:35;29.70;99.90
6421;DHT22;3243;50.958;7.012;2022-08-11T12:08:03;29.60;99.90
6421;DHT22;3243;50.958;7.012;2022-08-11T12:13:40;29.80;99.90
6421;DHT22;3243;50.958;7.012;2022-08-11T12:16:12;29.90;99.90
6421;DHT22;3243;50.958;7.012;2022-08-11T12:18:59;29.90;99.90
6421;DHT22;3243;50.958;7.012;2022-08-11T12:21:28;30.00;99.90
6421;DHT22;3243;50.958;7.012;2022-08-11T12:23:57;30.10;99.90
6421;DHT22;3243;50.958;7.012;2022-08-11T12:26:44;30.10;99.90
6421;DHT22;3243;50.958;7.012;2022-08-11T12:29:37;30.20;99.90
6421;DHT22;3243;50.958;7.012;2022-08-11T12:32:09;30.20;99.90
6421;DHT22;3243;50.958;7.012;2022-08-11T12:34:37;30.10;99.90
6421;DHT22;3243;50.958;7.012;2022-08-11T12:37:04;30.20;99.90
6421;DHT22;3243;50.958;7.012;2022-08-11T12:39:46;30.20;99.90
6421;DHT22;3243;50.958;7.012;2022-08-11T12:42:53;30.20;99.90
6421;DHT22;3243;50.958;7.012;2022-08-11T12:46:21;30.20;99.90
6421;DHT22;3243;50.958;7.012;2022-08-11T12:48:57;30.20;99.90
6421;DHT22;3243;50.958;7.012;2022-08-11T12:51:49;30.30;99.90
6421;DHT22;3243;50.958;7.012;2022-08-11T12:54:44;30.30;99.90
6421;DHT22;3243;50.958;7.012;2022-08-11T12:57:19;30.10;99.90
6421;DHT22;3243;50.958;7.012;2022-08-11T13:00:06;30.00;99.90
6421;DHT22;3243;50.958;7.012;2022-08-11T13:02:51;29.90;99.90
6421;DHT22;3243;50.958;7.012;2022-08-11T13:05:37;29.80;99.90
6421;DHT22;3243;50.958;7.012;2022-08-11T13:08:14;29.70;99.90
6421;DHT22;3243;50.958;7.012;2022-08-11T13:10:43;29.80;99.90
6421;DHT22;3243;50.958;7.012;2022-08-11T13:13:29;29.80;99.90
6421;DHT22;3243;50.958;7.012;2022-08-11T13:16:17;29.80;99.90
6421;DHT22;3243;50.958;7.012;2022-08-11T13:18:44;29.90;99.90
6421;DHT22;3243;50.958;7.012;2022-08-11T13:21:12;30.00;99.90
6421;DHT22;3243;50.958;7.012;2022-08-11T13:23:48;30.20;99.90
6421;DHT22;3243;50.958;7.012;2022-08-11T13:26:33;30.30;99.90
6421;DHT22;3243;50.958;7.012;2022-08-11T13:29:23;30.40;99.90
6421;DHT22;3243;50.958;7.012;2022-08-11T13:31:52;30.50;99.90
6421;DHT22;3243;50.958;7.012;2022-08-11T13:34:22;30.60;99.90
6421;DHT22;3243;50.958;7.012;2022-08-11T13:36:51;30.50;99.90
6421;DHT22;3243;50.958;7.012;2022-08-11T13:39:20;30.40;99.90
6421;DHT22;3243;50.958;7.012;2022-08-11T13:41:50;30.40;99.90
6421;DHT22;3243;50.958;7.012;2022-08-11T13:44:18;30.50;99.90
6421;DHT22;3243;50.958;7.012;2022-08-11T13:46:53;30.50;99.90
6421;DHT22;3243;50.958;7.012;2022-08-11T13:49:21;30.50;99.90
6421;DHT22;3243;50.958;7.012;2022-08-11T13:51:49;30.60;99.90
6421;DHT22;3243;50.958;7.012;2022-08-11T13:54:18;30.60;99.90
6421;DHT22;3243;50.958;7.012;2022-08-11T13:56:51;30.60;99.90
6421;DHT22;3243;50.958;7.012;2022-08-11T13:59:20;30.60;99.90
6421;DHT22;3243;50.958;7.012;2022-08-11T14:02:02;30.60;99.90
6421;DHT22;3243;50.958;7.012;2022-08-11T14:05:23;30.50;99.90
6421;DHT22;3243;50.958;7.012;2022-08-11T14:07:54;30.50;99.90
6421;DHT22;3243;50.958;7.012;2022-08-11T14:10:28;30.50;99.90
6421;DHT22;3243;50.958;7.012;2022-08-11T14:13:00;30.50;99.90
6421;DHT22;3243;50.958;7.012;2022-08-11T14:15:47;30.60;99.90
6421;DHT22;3243;50.958;7.012;2022-08-11T14:18:21;30.60;99.90
6421;DHT22;3243;50.958;7.012;2022-08-11T14:20:51;30.60;99.90
6421;DHT22;3243;50.958;7.012;2022-08-11T14:23:40;30.60;99.90
6421;DHT22;3243;50.958;7.012;2022-08-11T14:26:08;30.70;99.90
6421;DHT22;3243;50.958;7.012;2022-08-11T14:29:02;30.80;99.90
6421;DHT22;3243;50.958;7.012;2022-08-11T14:31:32;30.70;99.90
6421;DHT22;3243;50.958;7.012;2022-08-11T14:34:05;30.70;99.90
6421;DHT22;3243;50.958;7.012;2022-08-11T14:36:42;30.70;99.90
6421;DHT22;3243;50.958;7.012;2022-08-11T14:39:14;30.60;99.90
6421;DHT22;3243;50.958;7.012;2022-08-11T14:41:46;30.80;99.90
6421;DHT22;3243;50.958;7.012;2022-08-11T14:44:45;30.70;99.90
6421;DHT22;3243;50.958;7.012;2022-08-11T14:47:36;30.60;99.90
6421;DHT22;3243;50.958;7.012;2022-08-11T14:50:05;30.50;99.90
6421;DHT22;3243;50.958;7.012;2022-08-11T14:52:41;30.50;99.90
6421;DHT22;3243;50.958;7.012;2022-08-11T14:55:09;30.50;99.90
6421;DHT22;3243;50.958;7.012;2022-08-11T15:00:24;30.60;99.90
6421;DHT22;3243;50.958;7.012;2022-08-11T15:02:52;30.70;99.90
6421;DHT22;3243;50.958;7.012;2022-08-11T15:05:41;30.80;99.90
6421;DHT22;3243;50.958;7.012;2022-08-11T15:08:28;30.80;99.90
6421;DHT22;3243;50.958;7.012;2022-08-11T15:11:19;30.90;99.90
6421;DHT22;3243;50.958;7.012;2022-08-11T15:14:07;31.00;99.90
6421;DHT22;3243;50.958;7.012;2022-08-11T15:16:37;31.00;99.90
6421;DHT22;3243;50.958;7.012;2022-08-11T15:19:24;30.80;99.90
6421;DHT22;3243;50.958;7.012;2022-08-11T15:21:52;30.70;99.90
6421;DHT22;3243;50.958;7.012;2022-08-11T15:27:10;30.60;99.90
6421;DHT22;3243;50.958;7.012;2022-08-11T15:29:57;30.60;99.90
6421;DHT22;3243;50.958;7.012;2022-08-11T15:33:02;30.70;99.90
6421;DHT22;3243;50.958;7.012;2022-08-11T15:35:49;30.80;99.90
6421;DHT22;3243;50.958;7.012;2022-08-11T15:38:40;30.80;99.90
6421;DHT22;3243;50.958;7.012;2022-08-11T15:41:08;30.80;99.90
6421;DHT22;3243;50.958;7.012;2022-08-11T15:46:46;30.80;99.90
6421;DHT22;3243;50.958;7.012;2022-08-11T15:49:22;30.80;99.90
6421;DHT22;3243;50.958;7.012;2022-08-11T15:52:17;30.80;99.90
6421;DHT22;3243;50.958;7.012;2022-08-11T15:54:45;30.70;99.90
6421;DHT22;3243;50.958;7.012;2022-08-11T15:57:14;30.80;99.90
6421;DHT22;3243;50.958;7.012;2022-08-11T16:00:08;30.80;99.90
6421;DHT22;3243;50.958;7.012;2022-08-11T16:02:56;30.80;99.90
6421;DHT22;3243;50.958;7.012;2022-08-11T16:05:42;30.80;99.90
6421;DHT22;3243;50.958;7.012;2022-08-11T16:08:15;30.70;99.90
6421;DHT22;3243;50.958;7.012;2022-08-11T16:10:53;30.70;99.90
6421;DHT22;3243;50.958;7.012;2022-08-11T16:13:22;30.60;99.90
6421;DHT22;3243;50.958;7.012;2022-08-11T16:15:53;30.70;99.90
6421;DHT22;3243;50.958;7.012;2022-08-11T16:18:55;30.60;99.90
6421;DHT22;3243;50.958;7.012;2022-08-11T16:21:26;30.60;99.90
6421;DHT22;3243;50.958;7.012;2022-08-11T16:24:05;30.80;99.90
6421;DHT22;3243;50.958;7.012;2022-08-11T16:26:35;30.70;99.90
6421;DHT22;3243;50.958;7.012;2022-08-11T16:29:24;30.70;99.90
6421;DHT22;3243;50.958;7.012;2022-08-11T16:31:53;30.70;99.90
6421;DHT22;3243;50.958;7.012;2022-08-11T16:34:39;30.70;99.90
6421;DHT22;3243;50.958;7.012;2022-08-11T16:37:25;30.70;99.90
6421;DHT22;3243;50.958;7.012;2022-08-11T16:40:11;30.70;99.90
6421;DHT22;3243;50.958;7.012;2022-08-11T16:42:39;30.70;99.90
6421;DHT22;3243;50.958;7.012;2022-08-11T16:45:38;30.60;99.90
6421;DHT22;3243;50.958;7.012;2022-08-11T16:48:27;30.60;99.90
6421;DHT22;3243;50.958;7.012;2022-08-11T16:51:07;30.50;99.90
6421;DHT22;3243;50.958;7.012;2022-08-11T16:56:55;30.60;99.90
6421;DHT22;3243;50.958;7.012;2022-08-11T16:59:34;30.50;99.90
6421;DHT22;3243;50.958;7.012;2022-08-11T17:02:06;30.50;99.90
6421;DHT22;3243;50.958;7.012;2022-08-11T17:04:45;30.50;99.90
6421;DHT22;3243;50.958;7.012;2022-08-11T17:07:31;30.40;99.90
6421;DHT22;3243;50.958;7.012;2022-08-11T17:10:29;30.40;99.90
6421;DHT22;3243;50.958;7.012;2022-08-11T17:13:35;30.40;99.90
6421;DHT22;3243;50.958;7.012;2022-08-11T17:16:03;30.40;99.90
6421;DHT22;3243;50.958;7.012;2022-08-11T17:18:53;30.30;99.90
6421;DHT22;3243;50.958;7.012;2022-08-11T17:21:49;30.30;99.90
6421;DHT22;3243;50.958;7.012;2022-08-11T17:24:39;30.30;99.90
6421;DHT22;3243;50.958;7.012;2022-08-11T17:27:07;30.30;99.90
6421;DHT22;3243;50.958;7.012;2022-08-11T17:29:38;30.20;99.90
6421;DHT22;3243;50.958;7.012;2022-08-11T17:32:33;30.10;99.90
6421;DHT22;3243;50.958;7.012;2022-08-11T17:35:29;29.90;99.90
6421;DHT22;3243;50.958;7.012;2022-08-11T17:40:41;29.80;99.90
6421;DHT22;3243;50.958;7.012;2022-08-11T17:43:29;29.80;99.90
6421;DHT22;3243;50.958;7.012;2022-08-11T17:46:17;29.80;99.90
6421;DHT22;3243;50.958;7.012;2022-08-11T17:49:05;29.70;99.90
6421;DHT22;3243;50.958;7.012;2022-08-11T17:51:34;29.70;99.90
6421;DHT22;3243;50.958;7.012;2022-08-11T17:54:21;29.60;99.90
6421;DHT22;3243;50.958;7.012;2022-08-11T17:57:08;29.50;99.90
6421;DHT22;3243;50.958;7.012;2022-08-11T17:59:54;29.50;99.90
6421;DHT22;3243;50.958;7.012;2022-08-11T18:05:20;29.40;99.90
6421;DHT22;3243;50.958;7.012;2022-08-11T18:07:51;29.30;99.90
6421;DHT22;3243;50.958;7.012;2022-08-11T18:10:38;29.20;99.90
6421;DHT22;3243;50.958;7.012;2022-08-11T18:13:26;29.00;99.90
6421;DHT22;3243;50.958;7.012;2022-08-11T18:16:12;28.90;99.90
6421;DHT22;3243;50.958;7.012;2022-08-11T18:18:58;28.80;99.90
6421;DHT22;3243;50.958;7.012;2022-08-11T18:21:45;28.80;99.90
6421;DHT22;3243;50.958;7.012;2022-08-11T18:25:04;28.70;99.90
6421;DHT22;3243;50.958;7.012;2022-08-11T18:27:53;28.40;99.90
6421;DHT22;3243;50.958;7.012;2022-08-11T18:30:41;28.20;99.90
6421;DHT22;3243;50.958;7.012;2022-08-11T18:33:36;28.10;99.90
6421;DHT22;3243;50.958;7.012;2022-08-11T18:36:37;27.80;99.90
6421;DHT22;3243;50.958;7.012;2022-08-11T18:39:28;27.50;99.90
6421;DHT22;3243;50.958;7.012;2022-08-11T18:42:22;27.20;99.90
6421;DHT22;3243;50.958;7.012;2022-08-11T18:45:10;26.90;99.90
6421;DHT22;3243;50.958;7.012;2022-08-11T18:48:14;26.70;99.90
6421;DHT22;3243;50.958;7.012;2022-08-11T18:51:04;26.50;99.90
6421;DHT22;3243;50.958;7.012;2022-08-11T18:54:01;26.30;99.90
6421;DHT22;3243;50.958;7.012;2022-08-11T18:59:39;26.00;99.90
6421;DHT22;3243;50.958;7.012;2022-08-11T19:02:26;25.80;99.90
6421;DHT22;3243;50.958;7.012;2022-08-11T19:05:17;25.70;99.90
6421;DHT22;3243;50.958;7.012;2022-08-11T19:08:27;25.70;99.90
6421;DHT22;3243;50.958;7.012;2022-08-11T19:11:13;25.60;99.90
6421;DHT22;3243;50.958;7.012;2022-08-11T19:14:01;25.50;99.90
6421;DHT22;3243;50.958;7.012;2022-08-11T19:16:47;25.30;99.90
6421;DHT22;3243;50.958;7.012;2022-08-11T19:19:37;25.30;99.90
6421;DHT22;3243;50.958;7.012;2022-08-11T19:22:25;25.40;99.90
6421;DHT22;3243;50.958;7.012;2022-08-11T19:25:13;25.20;99.90
6421;DHT22;3243;50.958;7.012;2022-08-11T19:28:00;25.20;99.90
6421;DHT22;3243;50.958;7.012;2022-08-11T19:30:48;25.10;99.90
6421;DHT22;3243;50.958;7.012;2022-08-11T19:33:35;25.00;99.90
6421;DHT22;3243;50.958;7.012;2022-08-11T19:36:37;25.00;99.90
6421;DHT22;3243;50.958;7.012;2022-08-11T19:39:22;25.00;99.90
6421;DHT22;3243;50.958;7.012;2022-08-11T19:44:57;25.20;99.90
6421;DHT22;3243;50.958;7.012;2022-08-11T19:47:44;25.20;99.90
6421;DHT22;3243;50.958;7.012;2022-08-11T19:50:51;25.10;99.90
6421;DHT22;3243;50.958;7.012;2022-08-11T20:07:29;24.40;99.90
6421;DHT22;3243;50.958;7.012;2022-08-11T20:10:18;24.30;99.90
6421;DHT22;3243;50.958;7.012;2022-08-11T20:13:08;24.10;99.90
6421;DHT22;3243;50.958;7.012;2022-08-11T20:15:56;24.20;99.90
6421;DHT22;3243;50.958;7.012;2022-08-11T20:18:45;24.20;99.90
6421;DHT22;3243;50.958;7.012;2022-08-11T20:21:31;24.10;99.90
6421;DHT22;3243;50.958;7.012;2022-08-11T20:24:18;24.00;99.90
6421;DHT22;3243;50.958;7.012;2022-08-11T20:27:05;23.90;99.90
6421;DHT22;3243;50.958;7.012;2022-08-11T20:29:53;23.80;99.90
6421;DHT22;3243;50.958;7.012;2022-08-11T20:32:40;23.70;99.90
6421;DHT22;3243;50.958;7.012;2022-08-11T20:35:27;23.50;99.90
6421;DHT22;3243;50.958;7.012;2022-08-11T20:40:59;23.30;99.90
6421;DHT22;3243;50.958;7.012;2022-08-11T20:43:46;23.20;99.90
6421;DHT22;3243;50.958;7.012;2022-08-11T20:46:37;23.10;99.90
6421;DHT22;3243;50.958;7.012;2022-08-11T20:49:25;23.00;99.90
6421;DHT22;3243;50.958;7.012;2022-08-11T20:52:26;22.90;99.90
6421;DHT22;3243;50.958;7.012;2022-08-11T20:55:14;22.80;99.90
6421;DHT22;3243;50.958;7.012;2022-08-11T20:58:19;22.70;99.90
6421;DHT22;3243;50.958;7.012;2022-08-11T21:01:26;22.60;99.90
6421;DHT22;3243;50.958;7.012;2022-08-11T21:07:20;22.50;99.90
6421;DHT22;3243;50.958;7.012;2022-08-11T21:10:09;22.30;99.90
6421;DHT22;3243;50.958;7.012;2022-08-11T21:12:56;22.30;99.90
6421;DHT22;3243;50.958;7.012;2022-08-11T21:15:55;22.20;99.90
6421;DHT22;3243;50.958;7.012;2022-08-11T21:19:02;22.20;99.90
6421;DHT22;3243;50.958;7.012;2022-08-11T21:22:14;22.30;99.90
6421;DHT22;3243;50.958;7.012;2022-08-11T21:25:02;22.30;99.90
6421;DHT22;3243;50.958;7.012;2022-08-11T21:27:49;22.30;99.90
6421;DHT22;3243;50.958;7.012;2022-08-11T21:30:36;22.20;99.90
6421;DHT22;3243;50.958;7.012;2022-08-11T21:33:26;22.20;99.90
6421;DHT22;3243;50.958;7.012;2022-08-11T21:36:13;22.30;99.90
6421;DHT22;3243;50.958;7.012;2022-08-11T21:39:01;22.30;99.90
6421;DHT22;3243;50.958;7.012;2022-08-11T21:41:52;22.40;99.90
6421;DHT22;3243;50.958;7.012;2022-08-11T21:44:40;22.40;99.90
6421;DHT22;3243;50.958;7.012;2022-08-11T21:47:27;22.40;99.90
6421;DHT22;3243;50.958;7.012;2022-08-11T21:50:12;22.30;99.90
6421;DHT22;3243;50.958;7.012;2022-08-11T21:52:58;22.20;99.90
6421;DHT22;3243;50.958;7.012;2022-08-11T21:58:30;22.00;99.90
6421;DHT22;3243;50.958;7.012;2022-08-11T22:01:17;22.00;99.90
6421;DHT22;3243;50.958;7.012;2022-08-11T22:04:04;21.90;99.90
6421;DHT22;3243;50.958;7.012;2022-08-11T22:09:37;21.80;99.90
6421;DHT22;3243;50.958;7.012;2022-08-11T22:15:11;21.60;99.90
6421;DHT22;3243;50.958;7.012;2022-08-11T22:17:59;21.60;99.90
6421;DHT22;3243;50.958;7.012;2022-08-11T22:20:45;21.50;99.90
6421;DHT22;3243;50.958;7.012;2022-08-11T22:23:37;21.40;99.90
6421;DHT22;3243;50.958;7.012;2022-08-11T22:26:24;21.50;99.90
6421;DHT22;3243;50.958;7.012;2022-08-11T22:29:13;21.40;99.90
6421;DHT22;3243;50.958;7.012;2022-08-11T22:32:17;21.40;99.90
6421;DHT22;3243;50.958;7.012;2022-08-11T22:35:05;21.40;99.90
6421;DHT22;3243;50.958;7.012;2022-08-11T22:37:56;21.30;99.90
6421;DHT22;3243;50.958;7.012;2022-08-11T22:40:41;21.30;99.90
6421;DHT22;3243;50.958;7.012;2022-08-11T22:43:27;21.30;99.90
6421;DHT22;3243;50.958;7.012;2022-08-11T22:46:14;21.30;99.90
6421;DHT22;3243;50.958;7.012;2022-08-11T22:49:01;21.30;99.90
6421;DHT22;3243;50.958;7.012;2022-08-11T22:51:47;21.40;99.90
6421;DHT22;3243;50.958;7.012;2022-08-11T22:54:34;21.30;99.90
6421;DHT22;3243;50.958;7.012;2022-08-11T22:57:20;21.20;99.90
6421;DHT22;3243;50.958;7.012;2022-08-11T23:00:27;21.10;99.90
6421;DHT22;3243;50.958;7.012;2022-08-11T23:03:13;21.10;99.90
6421;DHT22;3243;50.958;7.012;2022-08-11T23:06:04;21.00;99.90
6421;DHT22;3243;50.958;7.012;2022-08-11T23:11:36;20.90;99.90
6421;DHT22;3243;50.958;7.012;2022-08-11T23:14:34;20.90;99.90
6421;DHT22;3243;50.958;7.012;2022-08-11T23:17:21;20.80;99.90
6421;DHT22;3243;50.958;7.012;2022-08-11T23:20:08;20.80;99.90
6421;DHT22;3243;50.958;7.012;2022-08-11T23:23:06;20.70;99.90
6421;DHT22;3243;50.958;7.012;2022-08-11T23:25:51;20.60;99.90
6421;DHT22;3243;50.958;7.012;2022-08-11T23:31:25;20.60;99.90
6421;DHT22;3243;50.958;7.012;2022-08-11T23:34:33;20.50;99.90
6421;DHT22;3243;50.958;7.012;2022-08-11T23:40:25;20.40;99.90
6421;DHT22;3243;50.958;7.012;2022-08-11T23:43:21;20.40;99.90
6421;DHT22;3243;50.958;7.012;2022-08-11T23:48:55;20.30;99.90
6421;DHT22;3243;50.958;7.012;2022-08-11T23:51:41;20.20;99.90
6421;DHT22;3243;50.958;7.012;2022-08-11T23:54:28;20.20;99.90
6421;DHT22;3243;50.958;7.012;2022-08-11T23:57:13;20.20;99.90
